Time;durP1;ratioP1;P1;durP2;ratioP2;P2;SDS_P1;SDS_P2;PMS_P1;PMS_P2;Temp;Humidity;BMP_temperature;BMP_pressure;BME280_temperature;BME280_humidity;BME280_pressure;Samples;Min_cycle;Max_cycle;Signal;HPM_P1;HPM_P2
2021/09/02 00:01:48;;;;;;;3.42;2.40;;;;;;;22.53;69.13;100454.69;4972087;28;102372;-53
2021/09/02 00:09:19;;;;;;;3.40;2.80;;;;;;;22.53;69.25;100449.16;5005680;28;102136;-53
2021/09/02 00:11:51;;;;;;;2.85;2.40;;;;;;;22.52;69.26;100442.00;5011780;28;102514;-53
2021/09/02 00:14:18;;;;;;;3.33;3.03;;;;;;;22.53;69.18;100449.94;5003930;28;103723;-53
2021/09/02 00:16:45;;;;;;;3.33;2.63;;;;;;;22.53;69.20;100454.69;5010757;28;102477;-53
2021/09/02 00:19:11;;;;;;;3.13;2.55;;;;;;;22.53;69.00;100460.25;5009293;28;103193;-52
2021/09/02 00:21:38;;;;;;;2.95;2.65;;;;;;;22.52;69.10;100451.13;5010512;28;102517;-53
2021/09/02 00:24:05;;;;;;;3.55;2.78;;;;;;;22.52;69.11;100453.09;5009533;28;103753;-53
2021/09/02 00:26:33;;;;;;;2.60;2.40;;;;;;;22.52;69.15;100450.31;5009692;28;102484;-53
2021/09/02 00:29:00;;;;;;;3.13;2.70;;;;;;;22.52;69.21;100456.66;5006865;28;102445;-53
2021/09/02 00:31:28;;;;;;;2.58;2.20;;;;;;;22.52;69.14;100459.44;5007638;28;104416;-53
2021/09/02 00:33:55;;;;;;;4.10;2.50;;;;;;;22.52;69.33;100453.91;5009562;28;103998;-53
2021/09/02 00:36:22;;;;;;;2.95;2.40;;;;;;;22.52;69.35;100459.44;5009110;28;102365;-53
2021/09/02 00:38:49;;;;;;;2.95;2.50;;;;;;;22.52;69.26;100464.19;5008884;28;102347;-52
2021/09/02 00:41:17;;;;;;;3.58;2.78;;;;;;;22.52;69.35;100464.19;5010105;28;102190;-53
2021/09/02 00:43:45;;;;;;;2.63;2.42;;;;;;;22.52;69.14;100472.50;5028817;27;103849;-53
2021/09/02 00:46:13;;;;;;;3.05;2.60;;;;;;;22.52;69.34;100458.63;5028000;28;102301;-52
2021/09/02 00:48:41;;;;;;;4.22;2.40;;;;;;;22.53;69.50;100468.56;5026404;28;102290;-52
2021/09/02 00:51:08;;;;;;;3.58;2.70;;;;;;;22.52;69.36;100469.72;5025018;28;102560;-52
2021/09/02 00:53:35;;;;;;;2.88;2.60;;;;;;;22.51;69.35;100460.63;5025844;28;103871;-52
2021/09/02 00:56:02;;;;;;;3.45;2.72;;;;;;;22.52;69.05;100462.22;5027908;28;102158;-53
2021/09/02 00:58:29;;;;;;;2.50;2.30;;;;;;;22.51;69.33;100468.94;5027910;27;102540;-53
2021/09/02 01:00:57;;;;;;;3.42;2.40;;;;;;;22.51;69.50;100476.44;5022781;27;102702;-53
2021/09/02 01:03:24;;;;;;;2.67;2.00;;;;;;;22.51;69.59;100471.72;5026111;28;104006;-53
2021/09/02 01:05:52;;;;;;;2.83;2.50;;;;;;;22.51;69.31;100479.22;5011951;27;102367;-52
2021/09/02 01:08:19;;;;;;;2.80;2.58;;;;;;;22.51;69.45;100462.59;5018395;28;102781;-52
2021/09/02 01:10:49;;;;;;;3.08;2.58;;;;;;;22.51;69.47;100479.22;5026319;28;102036;-53
2021/09/02 01:13:15;;;;;;;3.33;2.70;;;;;;;22.51;69.51;100473.69;5001038;28;103914;-53
2021/09/02 01:15:42;;;;;;;4.65;2.90;;;;;;;22.51;69.29;100479.22;5026943;27;102656;-52
2021/09/02 01:18:10;;;;;;;5.50;2.63;;;;;;;22.50;69.50;100472.88;5018882;28;102628;-53
2021/09/02 01:20:36;;;;;;;4.07;2.25;;;;;;;22.50;69.47;100461.78;5030515;27;102514;-53
2021/09/02 01:23:08;;;;;;;2.58;2.15;;;;;;;22.50;69.35;100455.41;5024418;27;103932;-53
2021/09/02 01:25:40;;;;;;;2.47;2.28;;;;;;;22.50;69.34;100460.94;5026873;27;102373;-52
2021/09/02 01:28:09;;;;;;;3.17;2.58;;;;;;;22.50;69.56;100461.78;5027399;28;102400;-53
2021/09/02 01:30:37;;;;;;;3.40;2.45;;;;;;;22.50;69.53;100461.78;5027827;27;103029;-52
2021/09/02 01:33:06;;;;;;;2.97;2.60;;;;;;;22.50;69.52;100460.94;5020879;28;103897;-53
2021/09/02 01:35:34;;;;;;;2.53;2.33;;;;;;;22.49;69.35;100460.16;5028441;27;102174;-52
2021/09/02 01:38:03;;;;;;;2.70;2.50;;;;;;;22.49;69.55;100454.59;5024784;28;102308;-52
2021/09/02 01:40:32;;;;;;;2.72;2.35;;;;;;;22.50;69.57;100456.25;5026715;27;102194;-53
2021/09/02 01:43:01;;;;;;;4.18;2.67;;;;;;;22.50;69.33;100456.25;5023721;27;104786;-52
2021/09/02 01:45:27;;;;;;;;;;;;;;;22.50;69.53;100453.47;5026478;28;102920;-53
2021/09/02 01:47:56;;;;;;;2.28;2.08;;;;;;;22.50;69.38;100456.25;5027657;27;102368;-52
2021/09/02 01:50:23;;;;;;;2.72;2.33;;;;;;;22.50;69.49;100455.41;5027601;28;103190;-53
2021/09/02 01:52:54;;;;;;;2.97;2.33;;;;;;;22.49;69.36;100449.06;5026659;28;104228;-53
2021/09/02 01:55:22;;;;;;;2.53;2.33;;;;;;;22.50;69.53;100460.94;5027264;27;102202;-53
2021/09/02 01:57:49;;;;;;;2.60;2.40;;;;;;;22.49;69.50;100459.34;5029379;27;102534;-53
2021/09/02 02:00:19;;;;;;;2.92;2.60;;;;;;;22.50;69.40;100466.50;5027841;28;102298;-53
2021/09/02 02:02:45;;;;;;;4.25;2.75;;;;;;;22.50;69.43;100460.94;5027012;27;104620;-53
2021/09/02 02:05:13;;;;;;;3.30;2.63;;;;;;;22.50;69.42;100458.19;5027517;28;102320;-53
2021/09/02 02:07:40;;;;;;;2.67;2.47;;;;;;;22.49;69.62;100459.34;5027083;27;102412;-53
2021/09/02 02:10:09;;;;;;;2.75;2.55;;;;;;;22.49;69.46;100459.34;5025994;27;102671;-53
2021/09/02 02:12:37;;;;;;;2.42;2.22;;;;;;;22.49;69.55;100462.13;5022497;27;103862;-54
2021/09/02 02:15:05;;;;;;;3.20;2.63;;;;;;;22.48;69.53;100458.56;5031360;27;101985;-52
2021/09/02 02:17:33;;;;;;;3.15;2.55;;;;;;;22.48;69.34;100453.00;5025345;27;102515;-53
2021/09/02 02:20:00;;;;;;;2.33;2.13;;;;;;;22.48;69.57;100457.75;5031795;28;102559;-53
2021/09/02 02:22:27;;;;;;;2.85;2.60;;;;;;;22.48;69.39;100457.75;5025049;28;103154;-53
2021/09/02 02:24:54;;;;;;;2.35;2.15;;;;;;;22.49;69.33;100464.91;5029455;28;102549;-53
2021/09/02 02:27:20;;;;;;;2.70;2.20;;;;;;;22.49;69.67;100459.34;5023202;28;102665;-52
2021/09/02 02:29:47;;;;;;;2.80;2.60;;;;;;;22.49;69.47;100459.34;5031120;27;102270;-53
2021/09/02 02:32:13;;;;;;;3.05;2.75;;;;;;;22.48;69.46;100457.75;5024747;28;103933;-53
2021/09/02 02:34:41;;;;;;;2.65;2.45;;;;;;;22.48;69.69;100458.56;5026506;28;102463;-53
2021/09/02 02:37:08;;;;;;;3.05;2.50;;;;;;;22.48;69.55;100471.63;5016251;28;102164;-53
2021/09/02 02:39:38;;;;;;;2.83;2.33;;;;;;;22.48;69.50;100475.19;5028665;27;102325;-53
2021/09/02 02:42:06;;;;;;;2.67;2.47;;;;;;;22.48;69.66;100477.16;5026094;28;104005;-53
2021/09/02 02:44:33;;;;;;;2.97;2.70;;;;;;;22.48;69.58;100486.28;5028025;27;108040;-52
2021/09/02 02:47:00;;;;;;;2.58;2.38;;;;;;;22.47;69.77;100476.38;5026970;28;102524;-53
2021/09/02 02:49:27;;;;;;;2.50;2.30;;;;;;;22.47;69.54;100476.38;5029158;27;102560;-53
2021/09/02 02:51:55;;;;;;;2.50;2.30;;;;;;;22.48;69.59;100482.72;5029416;27;103933;-53
2021/09/02 02:54:22;;;;;;;3.15;2.85;;;;;;;22.48;69.52;100474.38;5025050;27;102360;-53
2021/09/02 02:56:48;;;;;;;4.20;2.53;;;;;;;22.47;69.56;100483.88;5028516;28;102608;-53
2021/09/02 02:59:15;;;;;;;2.88;2.13;;;;;;;22.48;69.56;100474.38;5027391;28;102262;-53
2021/09/02 03:01:42;;;;;;;2.95;2.75;;;;;;;22.47;69.74;100486.66;5024536;28;103856;-53
2021/09/02 03:04:09;;;;;;;2.63;2.42;;;;;;;22.48;69.75;100482.72;5026852;28;103167;-53
2021/09/02 03:06:35;;;;;;;2.55;2.35;;;;;;;22.47;69.77;100483.88;5023597;27;102571;-53
2021/09/02 03:09:04;;;;;;;3.33;2.65;;;;;;;22.47;69.59;100479.13;5023812;27;103438;-53
2021/09/02 03:11:31;;;;;;;2.45;2.25;;;;;;;22.47;69.57;100484.69;5023809;27;104623;-53
2021/09/02 03:13:59;;;;;;;2.45;2.25;;;;;;;22.47;69.62;100483.88;5028109;27;102239;-52
2021/09/02 03:16:26;;;;;;;2.53;2.33;;;;;;;22.47;69.52;100489.44;5021584;28;102899;-53
2021/09/02 03:18:53;;;;;;;2.60;2.40;;;;;;;22.47;69.57;100486.66;5023058;27;102428;-53
2021/09/02 03:21:19;;;;;;;2.47;2.28;;;;;;;22.46;69.69;100480.28;5025877;27;103865;-53
2021/09/02 03:23:46;;;;;;;2.83;2.63;;;;;;;22.47;69.80;100483.88;5025975;27;102124;-53
2021/09/02 03:26:13;;;;;;;2.58;2.38;;;;;;;22.46;69.76;100477.50;5024816;28;102549;-53
2021/09/02 03:28:40;;;;;;;2.63;2.43;;;;;;;22.46;69.67;100477.50;5026085;27;102876;-53
2021/09/02 03:31:07;;;;;;;4.00;2.45;;;;;;;22.46;69.69;100479.47;5011761;28;103983;-53
2021/09/02 03:33:35;;;;;;;2.40;2.20;;;;;;;22.46;69.68;100482.25;5025979;27;102566;-53
2021/09/02 03:36:01;;;;;;;3.23;2.37;;;;;;;22.47;69.60;100483.88;5029411;28;102000;-53
2021/09/02 03:38:29;;;;;;;3.35;2.72;;;;;;;22.45;69.62;100480.66;5036580;27;102247;-53
2021/09/02 03:40:56;;;;;;;2.63;2.42;;;;;;;22.46;69.69;100485.03;5025770;28;103379;-53
2021/09/02 03:43:24;;;;;;;3.63;2.70;;;;;;;22.46;69.80;100485.81;5027741;27;103398;-53
2021/09/02 03:45:51;;;;;;;2.55;2.35;;;;;;;22.46;69.60;100482.25;5033210;27;102092;-53
2021/09/02 03:48:18;;;;;;;2.47;2.28;;;;;;;22.46;69.79;100490.56;5030733;27;102940;-53
2021/09/02 03:50:56;;;;;;;2.35;2.15;;;;;;;22.46;69.74;100487.78;5030235;27;103841;-53
2021/09/02 03:53:23;;;;;;;2.72;2.53;;;;;;;22.46;69.81;100493.34;5021403;28;101994;-53
2021/09/02 03:55:50;;;;;;;2.83;2.63;;;;;;;22.46;69.83;100493.34;5022794;27;102459;-53
2021/09/02 03:58:16;;;;;;;2.90;2.70;;;;;;;22.45;69.68;100497.28;5031141;27;102169;-53
2021/09/02 04:00:44;;;;;;;2.95;2.38;;;;;;;22.46;69.71;100504.44;5021348;28;103648;-53
2021/09/02 04:03:11;;;;;;;2.60;2.40;;;;;;;22.45;69.73;100503.63;5023489;28;102598;-53
2021/09/02 04:05:37;;;;;;;2.55;2.35;;;;;;;22.45;69.64;100500.06;5030548;27;102117;-53
2021/09/02 04:08:04;;;;;;;3.28;2.40;;;;;;;22.45;69.76;100508.38;5018604;28;102237;-53
2021/09/02 04:10:33;;;;;;;2.78;2.58;;;;;;;22.45;69.73;100508.38;5030620;28;103685;-53
2021/09/02 04:13:00;;;;;;;2.95;2.58;;;;;;;22.45;69.73;100514.72;5029554;28;102213;-52
2021/09/02 04:15:26;;;;;;;2.60;2.40;;;;;;;22.45;69.73;100522.25;5027144;28;102559;-53
2021/09/02 04:17:55;;;;;;;3.10;2.40;;;;;;;22.44;69.76;100513.13;5028177;28;102625;-53
2021/09/02 04:20:22;;;;;;;3.00;2.70;;;;;;;22.45;69.78;100528.59;5024877;28;103375;-53
2021/09/02 04:22:49;;;;;;;2.63;2.42;;;;;;;22.45;69.78;100519.47;5018533;28;102387;-53
2021/09/02 04:25:16;;;;;;;2.40;2.20;;;;;;;22.44;69.94;100515.88;5026723;28;102628;-53
2021/09/02 04:27:42;;;;;;;2.90;2.63;;;;;;;22.44;69.75;100524.22;5032623;27;102350;-52
2021/09/02 04:30:13;;;;;;;2.60;2.40;;;;;;;22.44;69.82;100517.88;5028404;28;103927;-53
2021/09/02 04:32:40;;;;;;;3.03;2.65;;;;;;;22.44;69.83;100517.88;5025645;27;102381;-53
2021/09/02 04:35:09;;;;;;;2.95;2.50;;;;;;;22.44;69.71;100515.09;5025782;27;102070;-53
2021/09/02 04:37:37;;;;;;;4.70;2.88;;;;;;;22.44;69.84;100515.09;5021980;27;106522;-53
2021/09/02 04:40:07;;;;;;;3.13;2.83;;;;;;;22.44;69.73;100523.41;5024303;27;103965;-53
2021/09/02 04:42:34;;;;;;;3.28;2.95;;;;;;;22.43;69.65;100522.59;5025353;27;102596;-53
2021/09/02 04:45:01;;;;;;;3.05;2.75;;;;;;;22.44;69.64;100528.94;5028985;27;102317;-53
2021/09/02 04:47:28;;;;;;;2.92;2.67;;;;;;;22.44;69.95;100523.41;5021412;27;102135;-53
2021/09/02 04:49:55;;;;;;;2.88;2.65;;;;;;;22.43;69.87;100532.88;5023209;27;104377;-53
2021/09/02 04:52:23;;;;;;;2.53;2.33;;;;;;;22.43;69.81;100533.69;5017252;27;102831;-53
2021/09/02 04:54:49;;;;;;;2.60;2.40;;;;;;;22.44;69.87;100534.50;5022386;27;102300;-53
2021/09/02 04:57:19;;;;;;;3.15;2.85;;;;;;;22.45;69.92;100536.09;5022553;28;102761;-53
2021/09/02 04:59:46;;;;;;;3.20;2.90;;;;;;;22.44;69.90;100540.03;5023793;27;103994;-53
2021/09/02 05:02:13;;;;;;;2.85;2.65;;;;;;;22.44;70.00;100531.72;5033152;27;103320;-53
2021/09/02 05:04:42;;;;;;;2.92;2.72;;;;;;;22.44;69.93;100535.31;5035972;27;102764;-53
2021/09/02 05:07:09;;;;;;;4.20;3.25;;;;;;;22.44;69.80;100537.28;5021818;27;102585;-52
2021/09/02 05:09:37;;;;;;;3.17;2.60;;;;;;;22.44;69.74;100528.94;5027342;28;103908;-53
2021/09/02 05:12:04;;;;;;;3.28;2.97;;;;;;;22.44;69.76;100531.72;5029348;27;102718;-53
2021/09/02 05:14:31;;;;;;;3.28;2.60;;;;;;;22.44;69.79;100551.13;5028783;28;102502;-53
2021/09/02 05:16:59;;;;;;;3.30;3.00;;;;;;;22.43;69.88;100541.19;5027463;27;102282;-53
2021/09/02 05:19:28;;;;;;;2.63;2.42;;;;;;;22.43;69.79;100546.72;5020343;27;103770;-53
2021/09/02 05:21:55;;;;;;;3.00;2.80;;;;;;;22.43;70.06;100552.28;5023212;28;102378;-53
2021/09/02 05:24:21;;;;;;;3.05;2.85;;;;;;;22.42;69.91;100543.16;5028195;27;102640;-53
2021/09/02 05:26:50;;;;;;;3.53;3.20;;;;;;;22.43;70.01;100553.09;5030421;27;102447;-53
2021/09/02 05:29:16;;;;;;;3.30;3.00;;;;;;;22.43;69.94;100549.50;5027409;27;103689;-53
2021/09/02 05:31:43;;;;;;;3.58;3.22;;;;;;;22.42;70.02;100553.44;5026167;27;103301;-53
2021/09/02 05:34:09;;;;;;;3.40;3.10;;;;;;;22.42;69.85;100553.44;5021270;28;102572;-53
2021/09/02 05:36:36;;;;;;;3.50;3.20;;;;;;;22.43;69.96;100553.09;5023671;27;102655;-53
2021/09/02 05:39:03;;;;;;;3.55;3.25;;;;;;;22.41;69.93;100552.66;5020975;27;104095;-53
2021/09/02 05:41:30;;;;;;;4.82;3.30;;;;;;;22.43;69.91;100563.38;5022212;27;102364;-53
2021/09/02 05:43:59;;;;;;;5.50;3.38;;;;;;;22.42;70.06;100559.78;5012844;28;102037;-53
2021/09/02 05:46:25;;;;;;;3.37;3.03;;;;;;;22.42;69.93;100562.56;5022621;28;102844;-53
2021/09/02 05:48:52;;;;;;;3.38;3.08;;;;;;;22.43;70.02;100571.69;5021666;28;103892;-53
2021/09/02 05:51:19;;;;;;;3.67;3.28;;;;;;;22.42;70.05;100567.31;5024908;27;102522;-53
2021/09/02 05:53:45;;;;;;;3.60;3.20;;;;;;;22.42;69.79;100564.53;5026392;28;102445;-53
2021/09/02 05:56:12;;;;;;;5.72;4.03;;;;;;;22.43;69.88;100560.59;5023359;28;102700;-53
2021/09/02 05:58:40;;;;;;;4.38;3.67;;;;;;;22.42;69.93;100567.31;5026853;27;103613;-52
2021/09/02 06:01:08;;;;;;;5.07;3.92;;;;;;;22.43;69.85;100560.59;5027273;27;102017;-53
2021/09/02 06:03:35;;;;;;;4.03;3.63;;;;;;;22.43;69.91;100563.38;5019823;27;102673;-53
2021/09/02 06:06:04;;;;;;;4.95;3.58;;;;;;;22.43;69.81;100566.97;5026412;27;102448;-53
2021/09/02 06:08:30;;;;;;;5.30;3.67;;;;;;;22.43;70.05;100571.69;5025612;28;103981;-53
2021/09/02 06:11:02;;;;;;;4.35;3.85;;;;;;;22.42;70.02;100568.13;5025733;28;102382;-53
2021/09/02 06:13:29;;;;;;;4.53;3.58;;;;;;;22.44;69.93;100573.31;5023523;28;102663;-53
2021/09/02 06:15:56;;;;;;;3.97;3.65;;;;;;;22.43;69.82;100577.22;5029275;27;102405;-53
2021/09/02 06:18:25;;;;;;;3.60;3.28;;;;;;;22.43;69.98;100571.69;5027129;28;104563;-53
2021/09/02 06:20:52;;;;;;;4.00;3.30;;;;;;;22.42;69.85;100581.97;5023440;27;102161;-53
2021/09/02 06:23:18;;;;;;;3.75;3.45;;;;;;;22.42;69.82;100592.25;5005940;28;102309;-53
2021/09/02 06:25:45;;;;;;;4.68;3.65;;;;;;;22.42;69.78;100587.53;5027258;28;105280;-53
2021/09/02 06:28:12;;;;;;;5.78;3.28;;;;;;;22.41;69.87;100591.47;5024173;27;103912;-54
2021/09/02 06:30:39;;;;;;;5.03;3.38;;;;;;;22.43;69.81;100593.88;5024076;28;102223;-53
2021/09/02 06:33:05;;;;;;;3.58;3.28;;;;;;;22.42;69.82;100592.25;5020935;27;102258;-53
2021/09/02 06:35:33;;;;;;;3.72;2.97;;;;;;;22.41;69.87;100597.00;5019005;28;102595;-53
2021/09/02 06:38:00;;;;;;;4.07;3.40;;;;;;;22.42;69.83;100606.13;5024451;27;104066;-53
2021/09/02 06:40:27;;;;;;;3.58;3.10;;;;;;;22.42;69.95;100614.44;5022307;27;102624;-53
2021/09/02 06:42:55;;;;;;;3.55;3.10;;;;;;;22.41;70.07;100618.38;5024965;28;102372;-53
2021/09/02 06:45:22;;;;;;;3.92;3.30;;;;;;;22.42;69.99;100625.53;5018671;27;102726;-54
2021/09/02 06:47:49;;;;;;;3.42;3.13;;;;;;;22.42;69.88;100628.31;5021009;28;103855;-53
2021/09/02 06:50:16;;;;;;;3.28;2.97;;;;;;;22.42;69.83;100628.31;5027726;27;102250;-53
2021/09/02 06:52:45;;;;;;;3.60;3.28;;;;;;;22.41;69.95;100630.28;5024620;27;102666;-53
2021/09/02 06:55:11;;;;;;;3.70;3.00;;;;;;;22.41;69.75;100635.81;5025419;27;102543;-53
2021/09/02 06:57:40;;;;;;;3.92;3.20;;;;;;;22.41;69.89;100646.13;5024058;27;104070;-53
2021/09/02 07:00:09;;;;;;;4.05;3.17;;;;;;;22.42;69.85;100647.72;5024068;28;102831;-53
2021/09/02 07:02:36;;;;;;;3.65;3.15;;;;;;;22.41;69.86;100652.47;5023689;27;102238;-53
2021/09/02 07:05:03;;;;;;;2.72;2.53;;;;;;;22.42;69.75;100658.81;5028668;28;102722;-53
2021/09/02 07:07:29;;;;;;;3.25;2.92;;;;;;;22.42;69.91;100664.34;5028341;28;104035;-52
2021/09/02 07:09:58;;;;;;;3.03;2.83;;;;;;;22.40;69.88;100659.19;5024375;27;102448;-53
2021/09/02 07:12:24;;;;;;;2.92;2.72;;;;;;;22.41;69.79;100654.44;5024910;27;102388;-53
2021/09/02 07:14:51;;;;;;;3.47;3.10;;;;;;;22.41;69.84;100657.22;5029102;27;102785;-53
2021/09/02 07:17:17;;;;;;;3.83;2.92;;;;;;;22.40;69.85;100656.41;5030090;27;104042;-53
2021/09/02 07:19:44;;;;;;;3.10;2.88;;;;;;;22.40;69.80;100655.59;5025251;28;102525;-53
2021/09/02 07:22:11;;;;;;;5.22;3.15;;;;;;;22.39;69.91;100649.22;5028139;27;102425;-53
2021/09/02 07:24:37;;;;;;;5.72;3.05;;;;;;;22.39;69.98;100649.22;5023528;27;103320;-53
2021/09/02 07:27:05;;;;;;;3.03;2.72;;;;;;;22.40;69.98;100641.75;5024239;27;104075;-53
2021/09/02 07:29:32;;;;;;;3.30;3.00;;;;;;;22.40;69.81;100648.09;5030023;28;102412;-53
2021/09/02 07:31:59;;;;;;;3.10;2.47;;;;;;;22.40;69.91;100634.22;5037032;27;102096;-53
2021/09/02 07:34:27;;;;;;;2.67;2.47;;;;;;;22.40;69.86;100638.97;5025831;28;102539;-53
2021/09/02 07:36:55;;;;;;;9.90;3.17;;;;;;;22.41;69.88;100641.38;5032912;27;103917;-53
2021/09/02 07:39:22;;;;;;;2.80;2.55;;;;;;;22.42;69.76;100639.41;5026303;28;102210;-53
2021/09/02 07:41:49;;;;;;;3.17;2.55;;;;;;;22.42;70.00;100653.25;5024588;28;102539;-53
2021/09/02 07:44:17;;;;;;;3.08;2.88;;;;;;;22.43;69.87;100649.31;5029449;28;102481;-53
2021/09/02 07:46:43;;;;;;;3.60;3.30;;;;;;;22.44;69.70;100656.50;5024889;27;104099;-53
2021/09/02 07:49:10;;;;;;;3.17;2.88;;;;;;;22.44;69.87;100645.41;5022791;28;102977;-53
2021/09/02 07:51:37;;;;;;;3.15;2.88;;;;;;;22.44;69.79;100645.41;5029134;27;102490;-53
2021/09/02 07:54:03;;;;;;;5.63;2.90;;;;;;;22.45;69.74;100649.78;5024371;27;102448;-53
2021/09/02 07:56:30;;;;;;;5.85;3.00;;;;;;;22.46;69.83;100656.94;5030038;27;103117;-53
2021/09/02 07:58:56;;;;;;;6.80;3.13;;;;;;;22.46;70.09;100659.72;5030520;27;102419;-53
2021/09/02 08:01:25;;;;;;;3.67;2.97;;;;;;;22.45;69.93;100663.66;5027057;28;102559;-53
2021/09/02 08:03:51;;;;;;;3.58;3.25;;;;;;;22.45;69.84;100656.13;5022886;27;103292;-53
2021/09/02 08:06:18;;;;;;;4.43;3.40;;;;;;;22.47;69.71;100664.13;5027406;28;103938;-53
2021/09/02 08:08:45;;;;;;;3.97;2.95;;;;;;;22.46;69.75;100659.72;5027968;28;102530;-53
2021/09/02 08:11:12;;;;;;;3.65;3.35;;;;;;;22.45;69.89;100658.91;5026567;27;102871;-53
2021/09/02 08:13:41;;;;;;;4.63;3.90;;;;;;;22.46;69.90;100649.44;5024070;27;102680;-53
2021/09/02 08:16:08;;;;;;;3.50;3.20;;;;;;;22.46;69.69;100654.16;5024329;27;103828;-53
2021/09/02 08:18:36;;;;;;;4.80;3.70;;;;;;;22.46;69.79;100648.63;5024797;28;102648;-53
2021/09/02 08:21:03;;;;;;;4.22;3.50;;;;;;;22.46;69.70;100654.97;5022442;27;103097;-53
2021/09/02 08:23:30;;;;;;;4.70;3.55;;;;;;;22.46;69.82;100638.34;5022944;27;102563;-53
2021/09/02 08:25:56;;;;;;;3.60;3.30;;;;;;;22.46;69.77;100651.41;5025429;27;103953;-53
2021/09/02 08:28:23;;;;;;;4.35;3.40;;;;;;;22.48;69.96;100657.41;5027272;28;102013;-53
2021/09/02 08:30:49;;;;;;;3.80;3.50;;;;;;;22.48;69.76;100657.41;5027461;28;102379;-53
2021/09/02 08:33:16;;;;;;;4.15;3.70;;;;;;;22.47;69.69;100650.25;5028277;28;102111;-53
2021/09/02 08:35:45;;;;;;;4.35;3.88;;;;;;;22.48;69.65;100646.31;5028356;27;103930;-53
2021/09/02 08:38:12;;;;;;;3.42;3.13;;;;;;;22.48;69.63;100652.66;5014326;27;102394;-53
2021/09/02 08:40:40;;;;;;;5.47;3.58;;;;;;;22.49;69.81;100636.81;5026964;27;102309;-53
2021/09/02 08:43:06;;;;;;;4.13;3.55;;;;;;;22.49;69.88;100647.91;5026653;27;102544;-53
2021/09/02 08:45:34;;;;;;;4.45;4.05;;;;;;;22.50;69.66;100643.97;5026259;28;103608;-53
2021/09/02 08:48:04;;;;;;;4.13;3.72;;;;;;;22.50;69.76;100657.84;5027449;28;102310;-53
2021/09/02 08:50:34;;;;;;;4.20;3.80;;;;;;;22.49;69.59;100664.56;5027387;27;102385;-53
2021/09/02 08:53:02;;;;;;;4.35;3.95;;;;;;;22.49;69.50;100678.44;5027675;27;102817;-53
2021/09/02 08:55:29;;;;;;;4.53;4.10;;;;;;;22.48;69.46;100680.41;5023796;28;103912;-53
2021/09/02 08:57:57;;;;;;;4.27;3.80;;;;;;;22.49;69.55;100686.75;5026821;27;102722;-53
2021/09/02 09:00:25;;;;;;;4.13;3.72;;;;;;;22.48;69.38;100682.38;5024372;27;102575;-53
2021/09/02 09:02:57;;;;;;;4.20;3.90;;;;;;;22.48;69.38;100685.94;5027822;28;102649;-53
2021/09/02 09:05:24;;;;;;;7.03;4.90;;;;;;;22.48;69.39;100685.13;5024713;28;103385;-53
2021/09/02 09:08:12;;;;;;;4.85;4.35;;;;;;;22.47;69.36;100684.34;5016951;28;102798;-52
2021/09/02 09:10:39;;;;;;;;;;;;;;;22.46;69.10;100687.44;5021129;27;102337;-52
2021/09/02 09:13:09;;;;;;;6.45;4.18;;;;;;;22.47;69.52;100689.09;5018320;27;103605;-52
2021/09/02 09:15:38;;;;;;;4.93;3.80;;;;;;;22.47;69.29;100692.66;5017435;27;103932;-52
2021/09/02 09:18:15;;;;;;;4.65;4.22;;;;;;;22.46;69.29;100691.03;5019686;27;102734;-53
2021/09/02 09:20:42;;;;;;;5.55;4.10;;;;;;;22.46;69.54;100682.69;5018196;28;102747;-52
2021/09/02 09:23:09;;;;;;;4.32;3.92;;;;;;;22.46;69.34;100682.69;5020836;27;102536;-52
2021/09/02 11:02:05;;;;;;;4.80;4.40;;;;;;;22.33;69.45;100724.72;5099392;27;106051;-54
2021/09/02 11:04:32;;;;;;;5.20;4.60;;;;;;;22.34;69.30;100726.31;5081636;27;102787;-54
2021/09/02 11:07:00;;;;;;;5.00;4.50;;;;;;;22.34;69.39;100731.88;5051602;27;103919;-53
2021/09/02 11:09:28;;;;;;;4.68;4.18;;;;;;;22.34;69.39;100723.53;5080108;27;102769;-53
2021/09/02 11:11:57;;;;;;;5.18;4.70;;;;;;;22.35;69.29;100725.16;5078664;27;102032;-53
2021/09/02 11:14:24;;;;;;;5.00;4.07;;;;;;;22.35;69.15;100719.59;5078776;27;103624;-53
2021/09/02 11:17:07;;;;;;;4.70;4.30;;;;;;;22.36;69.17;100721.22;5077739;27;103593;-53
2021/09/02 11:19:35;;;;;;;4.65;4.00;;;;;;;22.34;69.40;100724.34;5077889;27;102760;-54
2021/09/02 11:22:11;;;;;;;4.40;4.00;;;;;;;22.35;69.19;100730.69;5084729;27;102588;-54
2021/09/02 11:24:42;;;;;;;3.97;3.58;;;;;;;22.35;69.28;100731.50;5086166;27;102402;-54
2021/09/02 11:27:10;;;;;;;4.50;4.10;;;;;;;22.37;69.21;100736.72;5083482;27;103896;-54
2021/09/02 11:29:37;;;;;;;4.38;4.00;;;;;;;22.37;69.18;100745.03;5082471;27;102541;-54
2021/09/02 11:32:07;;;;;;;4.50;4.10;;;;;;;22.36;69.12;100723.97;5075012;27;102334;-53
2021/09/02 11:34:34;;;;;;;4.57;4.18;;;;;;;22.36;69.26;100752.53;5083682;27;102600;-53
2021/09/02 11:37:01;;;;;;;4.38;3.92;;;;;;;22.37;69.26;100765.25;5074592;27;104179;-54
2021/09/02 11:39:29;;;;;;;4.40;4.00;;;;;;;22.36;69.06;100760.84;5085984;27;103275;-54
2021/09/02 11:42:01;;;;;;;4.95;4.10;;;;;;;22.37;69.08;100772.75;5084866;27;102709;-54
2021/09/02 11:44:31;;;;;;;4.80;4.40;;;;;;;22.36;69.18;100768.34;5087231;27;102704;-53
2021/09/02 11:47:04;;;;;;;4.50;4.10;;;;;;;22.36;69.30;100765.56;5077788;27;104151;-53
2021/09/02 11:49:32;;;;;;;5.55;3.90;;;;;;;22.36;68.96;100782.22;5082126;27;102614;-54
2021/09/02 11:52:04;;;;;;;4.80;4.30;;;;;;;22.35;69.13;100784.19;5082942;27;102391;-53
2021/09/02 11:54:33;;;;;;;6.22;4.60;;;;;;;22.35;69.08;100791.69;5080841;27;102416;-54
2021/09/02 11:57:00;;;;;;;4.75;4.28;;;;;;;22.35;68.97;100798.03;5080182;27;103415;-54
2021/09/02 11:59:27;;;;;;;5.17;4.67;;;;;;;22.36;69.04;100809.94;5080027;27;102423;-53
2021/09/02 12:01:55;;;;;;;4.90;4.40;;;;;;;22.35;69.13;100814.69;5076214;27;102584;-54
2021/09/02 12:04:23;;;;;;;5.10;4.60;;;;;;;22.35;69.28;100808.31;5061512;27;102303;-53
2021/09/02 12:06:54;;;;;;;5.07;4.68;;;;;;;22.36;69.09;100812.72;5069416;27;103717;-54
2021/09/02 12:09:23;;;;;;;5.10;4.10;;;;;;;22.36;69.10;100821.03;5062197;27;102562;-53
2021/09/02 12:11:51;;;;;;;6.00;4.93;;;;;;;22.35;68.99;100813.88;5070417;27;102279;-54
2021/09/02 12:14:20;;;;;;;5.30;4.67;;;;;;;22.35;68.95;100817.44;5064264;27;103742;-54
2021/09/02 12:17:00;;;;;;;4.63;4.22;;;;;;;22.35;68.90;100820.22;5066168;27;103081;-54
2021/09/02 12:19:27;;;;;;;5.50;4.97;;;;;;;22.35;68.91;100824.97;5066601;27;104431;-54
2021/09/02 12:22:10;;;;;;;4.88;4.40;;;;;;;22.34;68.95;100840.78;5070159;27;102473;-54
2021/09/02 12:24:37;;;;;;;5.78;5.00;;;;;;;22.34;69.18;100837.22;5067088;27;102764;-54
2021/09/02 12:27:03;;;;;;;5.28;4.75;;;;;;;22.35;69.13;100847.16;5061277;27;103644;-53
2021/09/02 12:29:30;;;;;;;6.70;4.60;;;;;;;22.35;68.88;100841.59;5071540;27;102415;-54
2021/09/02 12:31:57;;;;;;;5.40;4.90;;;;;;;22.34;69.06;100845.53;5067628;27;102616;-54
2021/09/02 12:34:27;;;;;;;7.68;5.53;;;;;;;22.33;68.92;100835.63;5064783;27;102567;-54
2021/09/02 12:37:01;;;;;;;6.90;5.43;;;;;;;22.34;68.96;100840.78;5052155;27;104724;-54
2021/09/02 12:39:29;;;;;;;5.85;5.25;;;;;;;22.34;68.93;100834.44;5069573;27;102813;-53
2021/09/02 12:41:58;;;;;;;5.43;4.93;;;;;;;22.34;68.93;100834.44;5065212;27;102713;-54
2021/09/02 12:44:25;;;;;;;;;;;;;;;22.33;68.87;100833.63;5061414;27;102317;-53
2021/09/02 12:46:56;;;;;;;4.75;4.35;;;;;;;22.33;68.83;100841.97;5062010;27;103663;-54
2021/09/02 12:49:25;;;;;;;6.18;4.80;;;;;;;22.34;69.02;100837.22;5067555;27;102636;-53
2021/09/02 12:52:12;;;;;;;6.22;4.57;;;;;;;22.34;68.99;100837.22;5069804;27;103453;-54
2021/09/02 12:55:00;;;;;;;5.32;4.78;;;;;;;22.34;68.96;100851.09;5040948;27;102673;-54
2021/09/02 12:57:28;;;;;;;5.03;4.38;;;;;;;22.34;69.06;100845.53;5064310;27;103943;-53
2021/09/02 12:59:54;;;;;;;5.57;4.40;;;;;;;22.34;68.98;100845.53;5067891;27;102607;-54
2021/09/02 13:02:21;;;;;;;5.10;4.20;;;;;;;22.33;68.93;100855.03;5053930;27;102774;-54